createdAt,value
2018-08-19T00:00:50.240Z,70.1
2018-08-19T00:02:50.424Z,70.1
2018-08-19T00:04:50.041Z,69.9
2018-08-19T00:06:50.405Z,68.9
2018-08-19T00:08:50.556Z,68.8
2018-08-19T00:10:50.732Z,68.0
2018-08-19T00:12:50.703Z,68.0
2018-08-19T00:14:50.757Z,68.6
2018-08-19T00:16:50.082Z,68.9
2018-08-19T00:18:50.307Z,68.9
2018-08-19T00:20:50.447Z,69.0
2018-08-19T00:22:50.541Z,69.4
2018-08-19T00:24:50.651Z,69.8
2018-08-19T00:26:49.940Z,69.3
2018-08-19T00:28:50.129Z,68.1
2018-08-19T00:30:50.278Z,68.1
2018-08-19T00:32:50.492Z,67.8
2018-08-19T00:34:50.024Z,67.8
2018-08-19T00:36:50.335Z,67.9
2018-08-19T00:38:50.527Z,67.9
2018-08-19T00:40:50.650Z,68.0
2018-08-19T00:42:49.866Z,69.0
2018-08-19T00:44:49.929Z,69.2
2018-08-19T00:46:50.315Z,70.0
2018-08-19T00:48:50.401Z,69.7
2018-08-19T00:50:50.590Z,70.2
2018-08-19T00:52:50.735Z,70.8
2018-08-19T00:54:49.837Z,70.8
2018-08-19T00:56:50.082Z,70.9
2018-08-19T00:58:50.136Z,70.9
2018-08-19T01:00:50.398Z,71.3
2018-08-19T01:02:50.583Z,72.5
2018-08-19T01:04:50.213Z,72.7
2018-08-19T01:06:50.554Z,73.3
2018-08-19T01:08:50.593Z,73.4
2018-08-19T01:10:50.642Z,73.7
2018-08-19T01:12:49.901Z,74.4
2018-08-19T01:14:50.317Z,74.6
2018-08-19T01:16:50.703Z,75.2
2018-08-19T01:18:49.802Z,75.5
2018-08-19T01:20:49.922Z,76.9
2018-08-19T01:22:50.257Z,77.3
2018-08-19T01:24:50.480Z,77.6
2018-08-19T01:26:49.937Z,77.7
2018-08-19T01:28:50.137Z,77.6
2018-08-19T01:30:50.235Z,78.0
2018-08-19T01:32:50.272Z,78.0
2018-08-19T01:34:49.811Z,78.6
2018-08-19T01:36:50.189Z,78.6
2018-08-19T01:38:50.311Z,79.1
2018-08-19T01:40:50.511Z,78.9
2018-08-19T01:42:50.707Z,78.6
2018-08-19T01:44:49.977Z,78.7
2018-08-19T01:46:50.215Z,78.8
2018-08-19T01:48:50.279Z,78.6
2018-08-19T01:50:50.334Z,78.7
2018-08-19T01:52:50.835Z,78.7
2018-08-19T01:54:50.019Z,79.3
2018-08-19T01:56:50.404Z,79.1
2018-08-19T01:58:50.483Z,79.4
2018-08-19T02:00:50.621Z,79.5
2018-08-19T02:02:50.783Z,79.8
2018-08-19T02:04:50.392Z,79.9
2018-08-19T02:06:49.944Z,80.2
2018-08-19T02:08:50.298Z,79.8
2018-08-19T02:10:50.501Z,79.7
2018-08-19T02:12:50.781Z,79.8
2018-08-19T02:14:50.128Z,80.2
2018-08-19T02:16:50.515Z,80.2
2018-08-19T02:18:50.745Z,80.3
2018-08-19T02:20:50.622Z,80.6
2018-08-19T02:22:49.936Z,80.5
2018-08-19T02:24:50.069Z,80.6
2018-08-19T02:26:50.384Z,81.0
2018-08-19T02:28:50.640Z,81.0
2018-08-19T02:30:50.888Z,81.5
2018-08-19T02:32:50.063Z,81.5
2018-08-19T02:34:50.700Z,81.4
2018-08-19T02:36:50.138Z,81.7
2018-08-19T02:38:50.272Z,81.7
2018-08-19T02:40:50.272Z,82.1
2018-08-19T02:42:50.328Z,82.1
2018-08-19T02:44:50.471Z,82.2
2018-08-19T02:46:49.841Z,82.4
2018-08-19T02:48:49.964Z,82.4
2018-08-19T02:50:50.094Z,82.2
2018-08-19T02:52:50.177Z,82.9
2018-08-19T02:54:50.434Z,82.9
2018-08-19T02:56:50.774Z,82.5
2018-08-19T02:58:50.109Z,82.5
2018-08-19T03:00:50.360Z,82.6
2018-08-19T03:02:50.548Z,82.7
2018-08-19T03:04:50.036Z,82.7
2018-08-19T03:06:50.389Z,82.7
2018-08-19T03:08:50.539Z,83.0
2018-08-19T03:10:50.635Z,82.7
2018-08-19T03:12:49.821Z,82.8
2018-08-19T03:14:49.913Z,83.1
2018-08-19T03:16:50.210Z,83.3
2018-08-19T03:18:50.347Z,83.4
2018-08-19T03:20:50.597Z,83.7
2018-08-19T03:22:50.758Z,83.8
2018-08-19T03:24:49.831Z,83.9
2018-08-19T03:26:50.187Z,84.0
2018-08-19T03:28:50.276Z,84.4
2018-08-19T03:30:50.465Z,84.4
2018-08-19T03:32:50.720Z,84.6
2018-08-19T03:34:50.342Z,84.9
2018-08-19T03:36:50.568Z,84.9
2018-08-19T03:38:50.650Z,85.2
2018-08-19T03:40:49.814Z,85.3
2018-08-19T03:42:49.998Z,85.7
2018-08-19T03:44:50.134Z,85.7
2018-08-19T03:46:50.533Z,85.5
2018-08-19T03:48:50.704Z,85.7
2018-08-19T03:50:50.773Z,85.6
2018-08-19T03:52:49.858Z,85.9
2018-08-19T03:54:49.927Z,86.0
2018-08-19T03:56:50.440Z,86.1
2018-08-19T03:58:50.650Z,85.8
2018-08-19T04:00:49.826Z,86.1
2018-08-19T04:02:50.055Z,86.0
2018-08-19T04:04:50.680Z,85.9
2018-08-19T04:06:49.913Z,85.9
2018-08-19T04:08:49.971Z,86.0
2018-08-19T04:10:50.420Z,86.0
2018-08-19T04:12:50.564Z,85.9
2018-08-19T04:14:50.714Z,85.8
2018-08-19T04:16:49.926Z,85.9
2018-08-19T04:18:49.916Z,86.1
2018-08-19T04:20:49.966Z,86.1
2018-08-19T04:22:50.195Z,86.1
2018-08-19T04:24:50.319Z,86.0
2018-08-19T04:26:50.501Z,86.0
2018-08-19T04:28:50.545Z,86.2
2018-08-19T04:30:50.553Z,86.1
2018-08-19T04:32:50.584Z,86.1
2018-08-19T04:34:50.220Z,86.1
2018-08-19T04:36:50.598Z,86.1
2018-08-19T04:38:50.728Z,86.3
2018-08-19T04:40:49.869Z,86.3
2018-08-19T04:42:49.910Z,86.3
2018-08-19T04:44:50.025Z,86.1
2018-08-19T04:46:50.283Z,86.2
2018-08-19T04:48:50.580Z,85.9
2018-08-19T04:50:50.738Z,86.3
2018-08-19T04:52:49.968Z,86.1
2018-08-19T04:54:49.954Z,86.0
2018-08-19T04:56:50.438Z,85.6
2018-08-19T04:58:50.525Z,85.3
2018-08-19T05:00:50.729Z,84.8
2018-08-19T05:02:49.940Z,84.5
2018-08-19T05:04:50.452Z,84.3
2018-08-19T05:06:50.744Z,84.4
2018-08-19T05:08:50.787Z,84.1
2018-08-19T05:10:49.849Z,84.0
2018-08-19T05:12:49.993Z,83.7
2018-08-19T05:14:50.191Z,83.3
2018-08-19T05:16:50.504Z,83.3
2018-08-19T05:18:50.511Z,82.9
2018-08-19T05:20:50.712Z,82.6
2018-08-19T05:22:50.009Z,82.1
2018-08-19T05:24:50.181Z,81.8
2018-08-19T05:26:50.514Z,81.9
2018-08-19T05:28:50.615Z,81.4
2018-08-19T05:30:50.737Z,80.9
2018-08-19T05:32:49.870Z,80.1
2018-08-19T05:34:50.575Z,80.0
2018-08-19T05:36:50.624Z,79.2
2018-08-19T05:38:50.776Z,79.2
2018-08-19T05:40:49.911Z,77.4
2018-08-19T05:42:49.969Z,76.2
2018-08-19T05:44:50.074Z,75.1
2018-08-19T05:46:50.462Z,74.0
2018-08-19T05:48:50.564Z,74.0
2018-08-19T05:50:50.671Z,74.0
2018-08-19T05:52:50.757Z,71
2018-08-19T05:54:49.777Z,70
2018-08-19T05:56:50.071Z,70
2018-08-19T05:58:50.154Z,71
2018-08-19T06:00:50.330Z,71
2018-08-19T06:02:50.416Z,70
2018-08-19T06:04:50.742Z,70
2018-08-19T06:06:50.081Z,70
2018-08-19T06:08:50.317Z,70
2018-08-19T06:10:50.671Z,70
2018-08-19T06:12:50.793Z,69
2018-08-19T06:14:49.974Z,69
2018-08-19T06:16:50.498Z,69
2018-08-19T06:18:49.854Z,68
2018-08-19T06:20:49.859Z,68
2018-08-19T06:22:49.870Z,68
2018-08-19T06:24:49.965Z,68
2018-08-19T06:26:50.401Z,67
2018-08-19T06:28:50.607Z,67
2018-08-19T06:30:50.017Z,67
2018-08-19T06:32:50.214Z,68.3
2018-08-19T06:34:51.510Z,68.3
2018-08-19T06:36:50.069Z,67.4
2018-08-19T06:38:50.305Z,67
2018-08-19T06:40:50.415Z,66
2018-08-19T06:42:50.523Z,66
2018-08-19T06:44:50.582Z,66
2018-08-19T06:46:49.998Z,66
2018-08-19T06:48:50.111Z,66
2018-08-19T06:50:50.122Z,66
2018-08-19T06:52:50.196Z,66
2018-08-19T06:54:50.243Z,65
2018-08-19T06:56:50.652Z,65
2018-08-19T06:58:49.810Z,65
2018-08-19T07:00:49.809Z,65
2018-08-19T07:02:49.998Z,65
2018-08-19T07:04:50.478Z,65
2018-08-19T07:06:49.856Z,65
2018-08-19T07:08:50.165Z,64
2018-08-19T07:10:50.698Z,64
2018-08-19T07:12:50.048Z,64
2018-08-19T07:14:50.196Z,65
2018-08-19T07:16:50.573Z,64
2018-08-19T07:18:51.270Z,64
2018-08-19T07:20:50.472Z,64
2018-08-19T07:22:50.675Z,64
2018-08-19T07:24:49.891Z,64
2018-08-19T07:26:50.464Z,64
2018-08-19T07:28:50.611Z,64
2018-08-19T07:30:50.605Z,64
2018-08-19T07:32:50.702Z,64
2018-08-19T07:34:50.339Z,64
2018-08-19T07:36:51.299Z,64
2018-08-19T07:38:50.574Z,64
2018-08-19T07:40:50.732Z,64
2018-08-19T07:42:50.761Z,64
2018-08-19T07:44:49.828Z,63
2018-08-19T07:46:50.144Z,64
2018-08-19T07:48:50.389Z,64
2018-08-19T07:50:50.554Z,63
2018-08-19T07:52:50.774Z,63
2018-08-19T07:54:49.861Z,63
2018-08-19T07:56:50.321Z,63
2018-08-19T07:58:50.377Z,63
2018-08-19T08:00:50.141Z,63
2018-08-19T08:02:50.364Z,63
2018-08-19T08:04:50.120Z,63
2018-08-19T08:06:50.547Z,62
2018-08-19T08:08:50.749Z,62
2018-08-19T08:10:50.331Z,62
2018-08-19T08:12:50.484Z,62
2018-08-19T08:14:50.685Z,62
2018-08-19T08:16:50.164Z,62
2018-08-19T08:18:50.275Z,62
2018-08-19T08:20:50.405Z,62
2018-08-19T08:22:50.542Z,62
2018-08-19T08:24:50.550Z,61
2018-08-19T08:26:49.964Z,61
2018-08-19T08:28:50.149Z,61
2018-08-19T08:30:50.349Z,61
2018-08-19T08:32:50.423Z,61
2018-08-19T08:34:50.044Z,59
2018-08-19T08:36:50.305Z,59
2018-08-19T08:38:50.433Z,60
2018-08-19T08:40:50.538Z,60
2018-08-19T08:42:50.719Z,59
2018-08-19T08:44:50.811Z,58
2018-08-19T08:46:50.091Z,58
2018-08-19T08:48:50.157Z,59
2018-08-19T08:50:50.242Z,59
2018-08-19T08:52:50.370Z,59
2018-08-19T08:54:50.671Z,57
2018-08-19T08:56:50.180Z,57
2018-08-19T08:58:50.343Z,57
2018-08-19T09:00:50.539Z,57
2018-08-19T09:02:50.658Z,56
2018-08-19T09:04:50.233Z,56
2018-08-19T09:06:50.627Z,54
2018-08-19T09:08:50.710Z,53
2018-08-19T09:10:49.924Z,53
2018-08-19T09:12:50.209Z,52
2018-08-19T09:14:50.355Z,53
2018-08-19T09:16:50.629Z,51
2018-08-19T09:18:50.761Z,52
2018-08-19T09:20:49.868Z,52
2018-08-19T09:22:50.368Z,53
2018-08-19T09:24:50.566Z,52
2018-08-19T09:26:49.858Z,52
2018-08-19T09:28:49.902Z,52
2018-08-19T09:30:50.156Z,50
2018-08-19T09:32:50.654Z,50
2018-08-19T09:34:50.398Z,50
2018-08-19T09:36:50.661Z,51
2018-08-19T09:38:49.865Z,51
2018-08-19T09:40:50.453Z,50
2018-08-19T09:42:50.629Z,50
2018-08-19T09:44:50.766Z,50
2018-08-19T09:46:50.206Z,50
2018-08-19T09:48:50.270Z,50
2018-08-19T09:50:50.387Z,50
2018-08-19T09:52:50.474Z,51
2018-08-19T09:54:50.567Z,50
2018-08-19T09:56:49.965Z,50
2018-08-19T09:58:50.158Z,50
2018-08-19T10:00:50.239Z,49
2018-08-19T10:02:50.760Z,49
2018-08-19T10:04:50.426Z,49
2018-08-19T10:06:49.780Z,49
2018-08-19T10:08:49.902Z,47
2018-08-19T10:10:50.184Z,47
2018-08-19T10:12:50.345Z,47
2018-08-19T10:14:50.385Z,47
2018-08-19T10:16:50.694Z,48
2018-08-19T10:18:49.832Z,47
2018-08-19T10:20:49.982Z,47
2018-08-19T10:22:50.252Z,46
2018-08-19T10:24:50.240Z,45
2018-08-19T10:26:50.607Z,45
2018-08-19T10:28:50.691Z,45
2018-08-19T10:30:50.810Z,45
2018-08-19T10:32:50.005Z,45
2018-08-19T10:34:50.511Z,44
2018-08-19T10:36:49.832Z,44
2018-08-19T10:38:49.819Z,44
2018-08-19T10:40:49.962Z,43
2018-08-19T10:42:50.193Z,43
2018-08-19T10:44:50.386Z,42
2018-08-19T10:46:50.716Z,43
2018-08-19T10:48:50.773Z,42
2018-08-19T10:50:49.953Z,42
2018-08-19T10:52:50.112Z,41
2018-08-19T10:54:50.175Z,41
2018-08-19T10:56:50.733Z,41
2018-08-19T10:58:50.020Z,42
2018-08-19T11:00:50.092Z,42
2018-08-19T11:02:50.281Z,42
2018-08-19T11:04:50.750Z,42
2018-08-19T11:06:50.030Z,42
2018-08-19T11:08:50.174Z,42
2018-08-19T11:10:50.328Z,42
2018-08-19T11:12:50.749Z,42
2018-08-19T11:14:49.966Z,42
2018-08-19T11:16:50.375Z,42
2018-08-19T11:18:50.585Z,42
2018-08-19T11:20:50.780Z,42
2018-08-19T11:22:49.891Z,42
2018-08-19T11:24:50.001Z,40
2018-08-19T11:26:50.311Z,40
2018-08-19T11:28:50.327Z,40
2018-08-19T11:30:50.323Z,41
2018-08-19T11:32:50.452Z,41
2018-08-19T11:34:50.109Z,41
2018-08-19T11:36:50.349Z,41
2018-08-19T11:38:50.149Z,41
2018-08-19T11:40:50.339Z,41
2018-08-19T11:42:50.443Z,40
2018-08-19T11:44:50.694Z,40
2018-08-19T11:46:50.104Z,40
2018-08-19T11:48:50.784Z,40
2018-08-19T11:50:49.871Z,40
2018-08-19T11:52:49.924Z,40
2018-08-19T11:54:50.272Z,41
2018-08-19T11:56:49.822Z,40
2018-08-19T11:58:49.843Z,40
2018-08-19T12:00:50.093Z,40
2018-08-19T12:02:50.536Z,39
2018-08-19T12:04:50.039Z,39
2018-08-19T12:06:50.388Z,39
2018-08-19T12:08:50.527Z,39
2018-08-19T12:10:50.628Z,39
2018-08-19T12:12:50.757Z,39
2018-08-19T12:14:50.028Z,40
2018-08-19T12:16:50.551Z,39
2018-08-19T12:18:50.651Z,39
2018-08-19T12:20:50.642Z,39
2018-08-19T12:22:50.732Z,39
2018-08-19T12:24:49.830Z,39
2018-08-19T12:26:50.136Z,39
2018-08-19T12:28:50.318Z,39
2018-08-19T12:30:50.431Z,38
2018-08-19T12:32:50.491Z,38
2018-08-19T12:34:50.194Z,38
2018-08-19T12:36:50.513Z,38
2018-08-19T12:38:50.613Z,38
2018-08-19T12:40:49.788Z,38
2018-08-19T12:42:50.813Z,38
2018-08-19T12:44:50.776Z,38
2018-08-19T12:46:50.127Z,38
2018-08-19T12:48:50.219Z,37
2018-08-19T12:50:50.262Z,37
2018-08-19T12:52:50.344Z,37
2018-08-19T12:54:50.497Z,37
2018-08-19T12:56:50.765Z,38
2018-08-19T12:58:50.165Z,38
2018-08-19T13:00:50.247Z,38
2018-08-19T13:02:50.341Z,38
2018-08-19T13:04:50.070Z,38
2018-08-19T13:06:50.396Z,37
2018-08-19T13:08:50.477Z,37
2018-08-19T13:10:50.608Z,37
2018-08-19T13:12:50.672Z,37
2018-08-19T13:14:50.673Z,37
2018-08-19T13:16:50.110Z,36
2018-08-19T13:18:50.232Z,37
2018-08-19T13:20:50.425Z,35
2018-08-19T13:22:51.021Z,35
2018-08-19T13:24:50.205Z,37
2018-08-19T13:26:50.505Z,37
2018-08-19T13:28:50.760Z,35
2018-08-19T13:30:49.792Z,34
2018-08-19T13:32:49.809Z,34
2018-08-19T13:34:50.617Z,35
2018-08-19T13:36:49.878Z,35
2018-08-19T13:38:50.059Z,35
2018-08-19T13:40:50.252Z,36
2018-08-19T13:42:50.371Z,36
2018-08-19T13:44:50.493Z,35
2018-08-19T13:46:49.872Z,35
2018-08-19T13:48:50.021Z,36
2018-08-19T13:50:50.030Z,35
2018-08-19T13:52:50.392Z,35
2018-08-19T13:54:50.674Z,35
2018-08-19T13:56:50.195Z,35
2018-08-19T13:58:50.416Z,35
2018-08-19T14:00:50.656Z,35
2018-08-19T14:02:50.043Z,35
2018-08-19T14:04:50.927Z,35
2018-08-19T14:06:50.615Z,34
2018-08-19T14:08:50.805Z,34
2018-08-19T14:10:50.059Z,34
2018-08-19T14:12:50.430Z,34
2018-08-19T14:14:50.671Z,34
2018-08-19T14:16:50.079Z,34
2018-08-19T14:18:50.308Z,34
2018-08-19T14:20:50.657Z,33
2018-08-19T14:22:50.142Z,33
2018-08-19T14:24:50.261Z,33
2018-08-19T14:26:50.734Z,33
2018-08-19T14:28:50.021Z,34
2018-08-19T14:30:51.026Z,33
2018-08-19T14:32:50.290Z,33
2018-08-19T14:34:50.876Z,33
2018-08-19T14:36:50.437Z,33
2018-08-19T14:38:50.726Z,33
2018-08-19T14:40:50.953Z,33
2018-08-19T14:42:50.111Z,33
2018-08-19T14:44:50.396Z,33
2018-08-19T14:46:50.833Z,33
2018-08-19T14:48:50.158Z,33
2018-08-19T14:50:50.312Z,33
2018-08-19T14:52:50.519Z,33
2018-08-19T14:54:50.784Z,32
2018-08-19T14:56:50.249Z,33
2018-08-19T14:58:50.425Z,33
2018-08-19T15:00:50.690Z,33
2018-08-19T15:02:51.030Z,33
2018-08-19T15:04:50.670Z,32
2018-08-19T15:06:50.145Z,33
2018-08-19T15:08:50.408Z,33
2018-08-19T15:10:50.598Z,33
2018-08-19T15:12:50.856Z,33
2018-08-19T15:14:50.192Z,32
2018-08-19T15:16:50.756Z,32
2018-08-19T15:18:49.995Z,32
2018-08-19T15:20:50.349Z,32
2018-08-19T15:22:50.738Z,32
2018-08-19T15:24:50.149Z,32
2018-08-19T15:26:50.572Z,32
2018-08-19T15:28:50.759Z,32
2018-08-19T15:30:50.095Z,32
2018-08-19T15:32:54.876Z,32
2018-08-19T15:34:50.053Z,32
2018-08-19T15:36:50.501Z,32
2018-08-19T15:38:50.585Z,32
2018-08-19T15:40:51.251Z,32
2018-08-19T15:42:50.439Z,33
2018-08-19T15:44:50.785Z,33
2018-08-19T15:46:50.168Z,33
2018-08-19T15:48:50.345Z,33
2018-08-19T15:50:50.574Z,33
2018-08-19T15:52:51.284Z,33
2018-08-19T15:54:50.571Z,33
2018-08-19T15:56:50.098Z,33
2018-08-19T15:58:50.937Z,33
2018-08-19T16:00:50.161Z,33
2018-08-19T16:02:50.334Z,33
2018-08-19T16:04:50.033Z,33
2018-08-19T16:06:50.576Z,33
2018-08-19T16:08:50.901Z,33
2018-08-19T16:10:50.154Z,33
2018-08-19T16:12:50.433Z,33
2018-08-19T16:14:50.684Z,33
2018-08-19T16:16:50.254Z,33
2018-08-19T16:18:50.660Z,33
2018-08-19T16:20:50.841Z,33
2018-08-19T16:22:50.049Z,33
2018-08-19T16:24:50.160Z,33
2018-08-19T16:26:50.419Z,33
2018-08-19T16:28:50.439Z,33
2018-08-19T16:30:50.556Z,33
2018-08-19T16:32:50.675Z,33
2018-08-19T16:34:50.154Z,33
2018-08-19T16:36:50.562Z,34
2018-08-19T16:38:50.661Z,33
2018-08-19T16:40:50.820Z,33
2018-08-19T16:42:49.834Z,33
2018-08-19T16:44:50.713Z,33
2018-08-19T16:46:50.022Z,33
2018-08-19T16:48:50.078Z,33
2018-08-19T16:50:50.623Z,33
2018-08-19T16:52:50.714Z,29.4
2018-08-19T16:54:50.755Z,29.6
2018-08-19T16:56:50.196Z,29.8
2018-08-19T16:58:50.482Z,29.8
2018-08-19T17:00:50.543Z,29.9
2018-08-19T17:02:51.298Z,30.3
2018-08-19T17:04:50.076Z,30.3
2018-08-19T17:06:50.310Z,30.4
2018-08-19T17:08:50.325Z,30.5
2018-08-19T17:10:50.355Z,30.6
2018-08-19T17:12:50.482Z,30.7
2018-08-19T17:14:50.532Z,30.8
2018-08-19T17:16:49.999Z,30.9
2018-08-19T17:18:50.354Z,30.8
2018-08-19T17:20:50.406Z,31.1
2018-08-19T17:22:50.468Z,31.1
2018-08-19T17:24:50.589Z,31.1
2018-08-19T17:26:50.141Z,31.2
2018-08-19T17:28:50.313Z,31.3
2018-08-19T17:30:50.356Z,31.4
2018-08-19T17:32:51.600Z,31.5
2018-08-19T17:34:50.291Z,31.5
2018-08-19T17:36:50.758Z,31.7
2018-08-19T17:38:49.797Z,32.1
2018-08-19T17:40:49.815Z,32.1
2018-08-19T17:42:49.932Z,32.1
2018-08-19T17:44:50.221Z,32.0
2018-08-19T17:46:50.540Z,32.0
2018-08-19T17:48:50.590Z,32.3
2018-08-19T17:50:50.708Z,32.4
2018-08-19T17:52:49.902Z,32.4
2018-08-19T17:54:50.080Z,32.5
2018-08-19T17:56:50.343Z,32.8
2018-08-19T17:58:50.431Z,32.8
2018-08-19T18:00:50.607Z,33.0
2018-08-19T18:02:49.837Z,33.1
2018-08-19T18:04:50.339Z,33.3
2018-08-19T18:06:50.589Z,33.6
2018-08-19T18:08:50.726Z,33.8
2018-08-19T18:10:50.155Z,33.8
2018-08-19T18:12:50.180Z,34.1
2018-08-19T18:14:50.731Z,34.3
2018-08-19T18:16:50.162Z,34.4
2018-08-19T18:18:50.223Z,34.7
2018-08-19T18:20:50.190Z,35.0
2018-08-19T18:22:50.153Z,35.2
2018-08-19T18:24:50.249Z,35.4
2018-08-19T18:26:50.662Z,35.6
2018-08-19T18:28:50.698Z,35.7
2018-08-19T18:30:50.950Z,35.8
2018-08-19T18:32:50.055Z,36.4
2018-08-19T18:34:50.719Z,36.7
2018-08-19T18:36:50.074Z,36.4
2018-08-19T18:38:50.138Z,37.1
2018-08-19T18:40:50.178Z,37.1
2018-08-19T18:42:50.341Z,37.5
2018-08-19T18:44:50.640Z,37.5
2018-08-19T18:46:49.894Z,38.3
2018-08-19T18:48:50.027Z,38.5
2018-08-19T18:50:50.087Z,38.8
2018-08-19T18:52:50.131Z,39.7
2018-08-19T18:54:50.352Z,39.8
2018-08-19T18:56:50.675Z,40.3
2018-08-19T18:58:50.088Z,40.8
2018-08-19T19:00:50.155Z,40.9
2018-08-19T19:02:50.405Z,40.9
2018-08-19T19:04:50.045Z,41.0
2018-08-19T19:06:50.467Z,42.0
2018-08-19T19:08:50.558Z,42.6
2018-08-19T19:10:50.619Z,42.4
2018-08-19T19:12:50.669Z,42.7
2018-08-19T19:14:50.804Z,42.9
2018-08-19T19:16:50.091Z,42.9
2018-08-19T19:18:50.112Z,44.0
2018-08-19T19:20:50.049Z,43.9
2018-08-19T19:22:50.228Z,44.2
2018-08-19T19:24:50.354Z,44.6
2018-08-19T19:26:50.576Z,45.1
2018-08-19T19:28:50.775Z,45.3
2018-08-19T19:30:49.839Z,45.4
2018-08-19T19:32:50.004Z,45.6
2018-08-19T19:34:50.463Z,46.1
2018-08-19T19:36:50.759Z,46.5
2018-08-19T19:38:49.891Z,46.5
2018-08-19T19:40:50.061Z,47.3
2018-08-19T19:42:50.054Z,47.1
2018-08-19T19:44:50.031Z,47.4
2018-08-19T19:46:50.515Z,47.3
2018-08-19T19:48:50.591Z,47.0
2018-08-19T19:50:50.566Z,47.5
2018-08-19T19:52:50.691Z,47.7
2018-08-19T19:54:49.796Z,43
2018-08-19T19:56:50.211Z,47.9
2018-08-19T19:58:50.486Z,48.7
2018-08-19T20:00:50.580Z,43
2018-08-19T20:02:50.616Z,48.5
2018-08-19T20:04:50.300Z,44
2018-08-19T20:06:50.630Z,44
2018-08-19T20:08:49.839Z,44
2018-08-19T20:10:49.895Z,44
2018-08-19T20:12:49.990Z,44
2018-08-19T20:14:50.155Z,44
2018-08-19T20:16:50.462Z,45
2018-08-19T20:18:50.708Z,45
2018-08-19T20:20:50.795Z,45
2018-08-19T20:22:49.931Z,45
2018-08-19T20:24:50.013Z,45
2018-08-19T20:26:50.390Z,45
2018-08-19T20:28:50.551Z,45
2018-08-19T20:30:50.735Z,45
2018-08-19T20:32:50.223Z,45
2018-08-19T20:34:49.858Z,46
2018-08-19T20:36:50.166Z,46
2018-08-19T20:38:50.333Z,46
2018-08-19T20:40:50.336Z,46
2018-08-19T20:42:50.450Z,46
2018-08-19T20:44:50.463Z,46
2018-08-19T20:46:49.815Z,46
2018-08-19T20:48:49.876Z,46
2018-08-19T20:50:49.888Z,47
2018-08-19T20:52:49.956Z,47
2018-08-19T20:54:50.237Z,47
2018-08-19T20:56:50.554Z,47
2018-08-19T20:58:50.606Z,47
2018-08-19T21:00:50.694Z,47
2018-08-19T21:02:49.842Z,48
2018-08-19T21:04:50.444Z,48
2018-08-19T21:06:50.737Z,48
2018-08-19T21:08:49.843Z,49
2018-08-19T21:10:50.005Z,49
2018-08-19T21:12:50.043Z,49
2018-08-19T21:14:50.688Z,50
2018-08-19T21:16:50.022Z,54.1
2018-08-19T21:18:50.126Z,54.4
2018-08-19T21:20:50.095Z,55.2
2018-08-19T21:22:50.046Z,55.8
2018-08-19T21:24:50.146Z,55.6
2018-08-19T21:26:50.465Z,56.0
2018-08-19T21:28:50.617Z,56.0
2018-08-19T21:30:49.827Z,56.6
2018-08-19T21:32:50.116Z,57.0
2018-08-19T21:34:50.673Z,57.3
2018-08-19T21:36:49.896Z,57.3
2018-08-19T21:38:50.228Z,57.4
2018-08-19T21:40:50.402Z,57.8
2018-08-19T21:42:50.608Z,58.2
2018-08-19T21:44:49.884Z,58.5
2018-08-19T21:46:50.251Z,58.3
2018-08-19T21:48:50.275Z,58.6
2018-08-19T21:50:50.329Z,58.3
2018-08-19T21:52:50.417Z,59.0
2018-08-19T21:54:50.486Z,59.1
2018-08-19T21:56:50.027Z,59.2
2018-08-19T21:58:50.129Z,59.5
2018-08-19T22:00:50.142Z,59.9
2018-08-19T22:02:50.239Z,59.9
2018-08-19T22:04:50.719Z,60.9
2018-08-19T22:06:50.137Z,60.6
2018-08-19T22:08:50.125Z,60.9
2018-08-19T22:10:50.286Z,60.6
2018-08-19T22:12:50.421Z,60.7
2018-08-19T22:14:50.518Z,60.8
2018-08-19T22:16:50.734Z,61.2
2018-08-19T22:18:50.649Z,61.1
2018-08-19T22:20:50.710Z,61.3
2018-08-19T22:22:49.936Z,62.0
2018-08-19T22:24:49.967Z,62.0
2018-08-19T22:26:50.187Z,62.3
2018-08-19T22:28:50.260Z,62.5
2018-08-19T22:30:50.374Z,62.7
2018-08-19T22:32:50.538Z,62.9
2018-08-19T22:34:50.025Z,62.8
2018-08-19T22:36:50.511Z,63.1
2018-08-19T22:38:50.671Z,63.2
2018-08-19T22:40:50.745Z,63.4
2018-08-19T22:42:49.815Z,63.4
2018-08-19T22:44:49.875Z,64.0
2018-08-19T22:46:50.192Z,64.2
2018-08-19T22:48:50.181Z,64.7
2018-08-19T22:50:50.707Z,64.8
2018-08-19T22:52:49.839Z,65.0
2018-08-19T22:54:50.053Z,65.5
2018-08-19T22:56:50.252Z,65.7
2018-08-19T22:58:50.336Z,66.3
2018-08-19T23:00:50.440Z,66.7
2018-08-19T23:02:50.606Z,66.7
2018-08-19T23:04:50.055Z,67.3
2018-08-19T23:06:50.348Z,67.7
2018-08-19T23:08:50.424Z,67.6
2018-08-19T23:10:50.514Z,67.6
2018-08-19T23:12:50.530Z,67.8
2018-08-19T23:14:50.609Z,67.8
2018-08-19T23:16:49.836Z,68.1
2018-08-19T23:18:49.802Z,68.3
2018-08-19T23:20:49.853Z,68.2
2018-08-19T23:22:50.045Z,68.3
2018-08-19T23:24:50.117Z,68.4
2018-08-19T23:26:50.362Z,68.7
2018-08-19T23:28:50.447Z,69.4
2018-08-19T23:30:50.507Z,69.0
2018-08-19T23:32:50.469Z,69.2
2018-08-19T23:34:49.939Z,69.4
2018-08-19T23:36:50.183Z,68.9
2018-08-19T23:38:50.286Z,68.7
2018-08-19T23:40:50.276Z,68.8
2018-08-19T23:42:50.332Z,68.5
2018-08-19T23:44:50.642Z,68.3
2018-08-19T23:46:49.863Z,68.1
2018-08-19T23:48:49.906Z,68.9
2018-08-19T23:50:50.028Z,68.3
2018-08-19T23:52:50.071Z,67.6
2018-08-19T23:54:50.033Z,68.1
2018-08-19T23:56:50.241Z,68.3
2018-08-19T23:58:50.336Z,68.4
